Date,TemperatureHighF,TemperatureAvgF,TemperatureLowF,DewpointHighF,DewpointAvgF,DewpointLowF,HumidityHigh,HumidityAvg,HumidityLow,PressureMaxIn,PressureMinIn,WindSpeedMaxMPH,WindSpeedAvgMPH,GustSpeedMaxMPH,PrecipitationSumIn
2013-1-2,20,16,11,9,6,2,74,67,61,30.33,30.25,14,9,18,0.00
2013-1-3,18,2,-9,3,-5,-15,82,70,50,30.36,30.28,6,2,7,0.00
2013-1-4,20,1,-12,3,-6,-16,85,73,47,30.34,30.24,4,1,5,0.00
2013-1-5,19,1,-12,5,-5,-17,85,75,52,30.38,30.20,6,1,7,0.00
2013-1-6,31,15,2,13,7,-2,86,70,43,30.20,29.96,9,3,15,0.00
2013-1-7,28,18,7,17,8,-1,81,65,43,30.16,30.04,7,2,10,0.00
2013-1-8,31,14,4,18,9,0,90,81,57,30.36,30.14,7,3,8,0.00
2013-1-9,43,26,1,27,17,-2,93,70,50,30.36,29.70,36,17,47,0.00
2013-1-10,40,29,18,25,16,4,80,57,41,29.70,29.53,32,18,42,0.00
2013-1-11,21,16,0,5,0,-5,78,49,40,29.91,29.65,20,10,34,0.00
2013-1-12,15,3,-9,5,-3,-13,84,74,59,29.99,29.90,7,4,11,0.00
2013-1-13,12,0,-12,1,-7,-17,81,72,61,30.11,29.98,12,5,18,0.00
2013-1-14,-4,-10,-12,-11,-15,-17,81,77,72,30.16,30.10,7,3,10,0.00
2013-1-15,26,22,14,15,14,10,86,70,63,30.49,30.37,13,8,16,0.00
2013-1-16,36,21,9,21,12,4,90,68,44,30.54,30.45,11,4,14,0.00
2013-1-17,34,16,-1,16,5,-5,86,65,37,30.54,30.39,5,2,7,0.00
2013-1-18,32,9,-7,12,2,-10,88,74,41,30.45,30.33,4,1,4,0.00
2013-1-19,31,7,-7,13,1,-11,86,78,45,30.49,30.37,4,2,5,0.00
2013-1-20,32,14,-6,15,5,-9,90,70,46,30.42,30.31,5,2,6,0.00
2013-1-21,36,15,3,15,6,-1,88,70,39,30.43,30.30,4,2,6,0.00
2013-1-22,37,12,1,16,5,-2,88,76,38,30.36,30.24,5,2,7,0.00
2013-1-23,51,33,4,26,17,0,86,55,28,30.28,30.16,6,3,11,0.00
2013-1-24,41,38,34,35,31,26,93,78,56,30.26,30.16,8,4,16,0.00
2013-1-25,41,35,32,35,33,30,97,93,80,30.26,30.10,4,2,6,0.00
2013-1-26,41,35,29,35,32,28,95,89,79,30.07,29.81,5,2,7,0.00
2013-1-27,38,36,31,34,32,30,95,89,83,29.81,29.67,17,10,28,0.00
2013-1-28,28,25,9,13,10,5,85,54,48,29.95,29.91,11,7,14,0.00
2013-1-31,44,34,23,27,24,20,89,68,47,30.33,30.27,5,3,8,0.00
2013-2-2,42,31,20,28,22,18,91,72,45,30.43,30.29,4,2,6,0.00
2013-2-3,47,35,26,27,25,21,92,69,41,30.29,30.12,9,4,12,0.00
2013-2-4,49,32,21,25,22,18,89,68,33,30.18,30.07,6,3,7,0.00
2013-2-5,50,34,22,30,23,19,88,67,31,30.12,29.86,6,2,8,0.00
2013-2-6,44,36,23,25,20,16,80,54,32,30.14,29.86,14,6,21,0.00
2013-2-7,48,33,18,22,18,15,92,58,26,30.14,29.75,22,10,32,0.00
2013-2-8,36,28,24,28,23,19,95,81,49,29.75,29.58,14,9,21,0.00
2013-2-9,30,22,16,24,19,10,92,85,73,29.86,29.63,10,5,14,0.00
2013-2-10,25,19,9,20,14,5,88,82,72,30.00,29.83,16,7,20,0.00
2013-2-11,25,13,-2,10,3,-7,83,67,45,30.19,30.00,9,5,11,0.00
2013-2-12,29,13,-3,18,6,-8,88,74,51,30.32,30.19,5,2,6,0.00
2013-2-13,43,23,6,24,16,3,93,76,45,30.33,30.21,8,3,12,0.00
2013-2-14,39,26,10,25,19,8,93,74,52,30.40,30.24,8,5,11,0.00
2013-2-15,40,24,17,26,18,13,88,77,58,30.45,30.40,5,3,9,0.00
2013-2-16,47,29,14,27,21,12,92,74,41,30.43,29.99,4,2,8,0.00
2013-2-17,45,35,21,22,17,10,76,50,26,30.05,29.87,17,7,32,0.00
2013-2-18,39,26,15,22,16,11,88,69,43,30.08,29.83,9,3,13,0.00
2013-2-19,45,38,25,21,17,14,83,44,31,29.83,29.47,23,14,32,0.00
2013-2-20,36,31,23,27,22,13,86,70,56,29.79,29.49,15,11,22,0.00
2013-2-21,34,25,15,14,10,3,78,54,27,30.01,29.79,15,6,21,0.00
2013-2-22,38,27,17,19,15,12,84,62,36,30.09,29.96,7,4,14,0.00
2013-2-23,38,30,25,20,12,3,77,47,30,29.98,29.66,21,12,38,0.00
2013-2-24,32,26,15,16,11,8,81,54,38,30.22,29.98,17,9,23,0.00
2013-2-25,49,26,9,20,11,4,85,58,16,30.21,29.90,15,5,30,0.00
2013-2-26,34,26,18,22,13,5,90,62,31,30.28,30.03,13,7,20,0.00
2013-2-27,40,25,11,15,10,4,84,57,24,30.36,30.28,7,3,10,0.00
2013-2-28,52,33,16,23,16,12,84,54,23,30.44,30.35,6,3,10,0.00
2013-3-1,55,39,21,30,25,19,90,62,34,30.52,30.43,8,4,11,0.00
2013-3-2,58,40,23,29,27,21,93,65,31,30.47,30.08,6,3,10,0.00
2013-3-3,49,44,37,34,28,26,70,55,43,30.08,29.90,14,7,19,0.00
2013-3-4,42,34,22,29,23,17,91,65,40,30.18,29.89,12,7,18,0.00
2013-3-5,56,36,17,22,17,14,90,55,20,30.18,29.85,24,11,34,0.00
2013-3-6,57,45,37,30,23,8,68,46,16,29.87,29.73,24,18,35,0.00
2013-3-7,43,38,34,28,27,25,75,64,52,29.89,29.83,10,7,14,0.00
2013-3-8,39,34,30,33,30,26,96,87,70,29.83,29.68,13,7,18,0.00
2013-3-9,47,36,30,30,23,14,92,62,28,30.25,29.74,20,13,27,0.00
2013-3-10,51,38,22,23,17,11,77,46,23,30.34,30.25,9,6,16,0.00
2013-3-11,57,42,25,26,22,18,84,49,24,30.28,30.16,11,4,20,0.00
2013-3-12,59,43,25,30,26,22,88,55,26,30.30,30.22,7,3,11,0.00
2013-3-13,69,43,27,30,25,16,89,59,13,30.35,30.24,7,4,12,0.00
2013-3-14,76,46,32,28,26,16,78,50,10,30.33,30.18,8,4,20,0.00
2013-3-15,67,57,51,23,20,19,28,24,16,30.04,30.02,9,5,15,0.00
2013-3-16,61,52,39,27,20,12,57,30,16,30.05,29.86,13,6,22,0.00
2013-3-17,53,48,41,22,14,7,43,26,17,29.97,29.86,25,12,38,0.00
2013-3-18,54,44,33,14,10,7,36,25,17,30.07,29.98,16,7,24,0.00
2013-3-19,56,46,38,22,18,13,43,32,26,30.19,30.07,11,6,18,0.00
2013-3-20,62,53,41,35,26,22,69,36,24,30.07,29.83,16,8,24,0.00
2013-3-21,50,42,34,28,12,-2,76,32,14,29.99,29.82,18,11,31,0.00
2013-3-22,40,32,22,13,10,5,66,40,26,30.01,29.82,18,10,32,0.00
2013-3-23,36,28,17,14,4,-3,80,41,19,30.14,30.01,13,6,18,0.00
2013-3-24,48,32,17,12,9,5,65,39,20,30.12,30.02,13,6,19,0.00
2013-3-25,56,40,29,19,14,11,50,35,21,30.10,29.95,12,6,17,0.00
2013-3-26,61,46,26,21,17,13,67,37,16,29.97,29.84,11,5,24,0.00
2013-3-27,61,44,31,26,21,16,70,44,18,30.00,29.90,10,4,16,0.00
2013-3-28,61,47,33,31,25,22,68,46,22,30.11,29.97,12,5,28,0.00
2013-3-29,61,47,34,32,30,27,78,53,30,30.21,30.11,5,3,10,0.00
2013-3-30,63,49,34,33,28,-100,80,52,27,30.22,30.13,7,4,14,0.00
2013-3-31,64,48,30,36,29,26,83,52,25,30.15,29.93,14,5,23,0.00
2013-4-1,45,42,37,37,34,30,92,77,54,30.01,29.92,12,5,19,0.00
2013-4-2,56,45,36,41,37,34,94,75,48,30.12,30.00,15,6,22,0.00
2013-4-3,64,47,31,38,32,28,95,64,26,30.22,30.12,7,3,13,0.00
2013-4-4,67,59,41,32,27,25,70,31,20,30.12,29.93,20,12,28,0.00
2013-4-5,60,52,44,39,29,21,80,45,25,30.05,29.93,16,8,28,0.00
2013-4-6,60,53,43,28,26,24,52,36,28,29.99,29.97,9,5,15,0.00
2013-4-7,62,54,41,26,14,1,54,24,9,29.97,29.58,12,7,31,0.00
2013-4-8,56,41,33,33,23,4,95,54,12,29.66,29.44,24,15,34,0.00
2013-4-9,39,35,29,25,21,18,84,57,45,30.11,29.66,25,16,35,0.00
2013-4-10,61,43,28,25,20,18,68,43,21,30.16,29.99,15,8,27,0.00
2013-4-11,57,47,43,28,25,22,48,43,26,29.99,29.89,9,7,12,0.00
2013-4-12,62,48,35,25,20,14,61,36,18,30.03,29.86,7,4,13,0.00
2013-4-13,66,53,38,26,20,6,48,29,18,29.86,29.57,24,11,42,0.00
2013-4-14,56,40,29,28,13,6,79,34,18,29.84,29.58,19,10,25,0.00
2013-4-15,44,36,30,31,27,22,98,73,42,29.68,29.57,17,7,25,0.00
2013-4-16,36,30,27,30,26,23,98,86,59,29.93,29.65,19,9,28,0.00
2013-4-17,35,30,25,26,22,18,84,72,49,30.21,29.93,16,9,22,0.00
2013-4-18,51,34,20,26,18,13,84,55,25,30.29,30.21,6,3,12,0.00
2013-4-19,55,38,26,35,25,21,83,64,33,30.27,30.00,14,5,22,0.00
2013-4-20,59,46,31,35,26,19,90,53,22,30.15,30.07,9,5,17,0.00
2013-4-21,66,49,28,28,23,15,83,43,16,30.17,29.98,14,5,27,0.00
2013-4-22,61,51,37,26,20,9,53,31,20,30.16,29.98,18,10,28,0.00
2013-4-23,52,40,27,20,15,9,64,39,19,30.23,30.03,11,6,17,0.00
2013-4-24,53,43,38,14,11,7,36,27,20,30.20,30.06,9,6,13,0.00
2013-4-25,65,46,25,18,14,9,64,32,11,30.11,29.98,10,4,20,0.00
2013-4-26,68,51,29,24,16,12,63,28,13,30.30,30.11,8,3,16,0.00
2013-4-27,73,54,34,27,23,19,58,34,14,30.35,30.16,8,4,17,0.00
2013-4-28,75,57,34,30,25,22,67,34,15,30.18,29.99,12,5,19,0.00
2013-4-29,76,59,40,31,26,22,54,30,17,30.05,29.77,12,6,23,0.00
2013-4-30,66,57,40,34,20,-1,46,25,14,30.08,29.80,18,10,38,0.00
2013-5-1,51,38,29,11,6,-2,39,27,17,30.53,30.08,13,9,22,0.00
2013-5-2,46,32,23,10,8,6,52,37,20,30.61,30.53,7,4,12,0.00
2013-5-3,72,59,34,16,12,7,37,17,10,30.25,29.96,13,6,23,0.00
2013-5-4,61,52,32,24,17,8,42,26,16,30.02,29.86,13,5,29,0.00
2013-5-5,70,58,45,34,24,13,54,29,14,29.92,29.81,16,9,29,0.00
2013-5-6,59,51,40,38,31,21,85,47,26,29.98,29.89,29,11,41,0.00
2013-5-7,57,45,35,39,34,25,92,69,30,29.98,29.90,14,5,20,0.00
2013-5-8,62,48,35,36,32,29,81,58,29,30.11,29.98,15,4,22,0.00
2013-5-9,66,56,42,40,33,24,71,45,23,30.18,30.08,14,7,23,0.00
2013-5-10,71,54,38,39,26,-100,68,40,22,30.32,30.18,13,5,21,0.00
2013-5-11,75,57,39,35,28,-100,69,39,16,30.37,30.25,7,3,11,0.00
2013-5-12,81,69,49,33,29,24,46,25,13,30.36,30.16,7,3,15,0.00
2013-5-13,85,67,44,35,28,22,60,27,11,30.25,30.06,10,5,20,0.00
2013-5-14,84,73,51,35,26,20,38,19,11,30.11,29.90,14,6,22,0.00
2013-5-15,78,71,61,37,31,25,37,23,16,29.99,29.86,15,6,26,0.00
2013-5-17,54,48,41,47,43,39,92,82,71,30.01,29.91,9,4,14,0.00
2013-5-18,62,50,36,42,35,29,96,63,30,30.08,30.00,12,5,19,0.00
2013-5-19,53,47,40,41,37,32,87,69,56,30.17,30.05,14,5,24,0.00
2013-5-20,64,49,33,39,34,28,92,60,34,30.23,30.12,8,4,15,0.00
2013-5-21,74,53,36,38,31,18,89,52,14,30.13,29.76,17,7,23,0.00
2013-5-22,76,60,45,29,22,17,35,24,12,29.86,29.59,22,14,34,0.00
2013-5-23,71,51,37,27,18,3,55,31,12,30.00,29.69,21,10,36,0.00
2013-5-24,74,53,30,22,15,5,52,25,12,30.08,29.88,19,7,29,0.00
2013-5-25,77,64,47,24,17,11,31,17,10,29.96,29.86,16,10,26,0.00
2013-5-26,74,63,45,28,19,8,34,19,12,29.99,29.86,16,9,26,0.00
2013-5-27,74,58,43,34,25,16,47,29,13,30.05,29.83,24,7,35,0.00
2013-5-28,58,53,48,41,35,31,70,52,43,29.93,29.79,11,6,19,0.00
2013-5-29,65,50,34,36,31,25,84,52,22,29.93,29.80,11,6,21,0.00
2013-5-30,70,52,36,35,29,21,82,50,16,29.97,29.91,12,6,21,0.00
2013-5-31,71,56,41,32,28,21,65,36,16,30.24,30.06,12,7,16,0.00
2013-6-1,72,56,49,27,23,21,34,28,19,30.25,30.06,7,5,10,0.00
2013-6-2,86,68,42,31,24,19,51,24,10,30.06,29.76,17,6,25,0.00
2013-6-3,80,65,52,38,32,23,43,30,18,30.06,29.86,13,8,19,0.00
2013-6-4,81,65,43,33,28,23,49,26,14,30.11,29.96,13,5,23,0.00
2013-6-5,81,66,45,38,32,27,51,30,15,30.17,30.02,9,4,12,0.00
2013-6-6,83,67,49,41,32,25,44,29,13,30.16,30.02,7,4,14,0.00
2013-6-7,87,68,46,39,32,27,56,28,14,30.13,29.98,12,4,25,0.00
2013-6-8,86,72,53,44,36,28,47,28,18,30.12,30.03,10,6,17,0.00
2013-6-9,93,74,52,41,34,27,45,25,11,30.14,29.90,11,5,22,0.00
2013-6-10,86,74,61,36,26,21,37,18,10,29.99,29.82,25,13,42,0.00
2013-6-11,79,72,57,38,32,10,33,23,12,30.07,29.90,14,6,22,0.00
2013-6-12,84,71,48,39,29,21,60,26,10,30.09,29.92,17,9,38,0.00
2013-6-13,82,71,54,33,23,2,42,18,8,30.09,29.90,24,12,36,0.00
2013-6-14,72,60,49,35,24,4,45,27,11,30.21,30.02,14,8,22,0.00
2013-6-15,78,55,40,33,18,6,36,25,9,30.11,29.98,12,3,17,0.00
2013-6-16,82,61,35,26,12,3,33,17,8,30.11,30.01,11,5,21,0.00
2013-6-17,85,67,47,33,20,8,33,17,10,30.14,29.95,10,4,16,0.00
2013-6-18,86,71,49,24,17,8,27,14,6,29.99,29.72,18,9,27,0.00
2013-6-19,72,63,52,24,15,8,25,16,8,29.99,29.72,15,9,28,0.00
2013-6-20,67,52,43,31,24,11,50,34,18,30.06,29.91,11,7,17,0.00
2013-6-22,77,68,52,33,28,18,44,23,14,30.10,29.94,11,5,16,0.00
2013-6-23,83,67,44,33,25,21,40,23,12,30.02,29.72,16,8,27,0.00
2013-6-24,72,66,56,40,31,23,50,28,20,29.94,29.77,18,11,27,0.00
2013-6-25,60,55,52,43,40,37,62,56,50,30.06,29.94,5,3,6,0.00
2013-6-26,90,77,55,45,40,35,56,29,15,30.17,30.05,14,8,22,0.00
2013-6-27,94,77,57,46,40,35,47,29,16,30.30,30.19,8,4,13,0.00
2013-6-28,94,80,64,47,40,34,40,26,16,30.32,30.17,29,7,44,0.00
2013-6-29,96,72,54,47,37,28,54,32,9,30.24,30.05,8,4,16,0.00
2013-6-30,88,78,71,39,38,36,31,24,16,30.14,30.08,5,3,7,0.00
2013-7-1,97,80,64,45,36,28,38,22,10,30.20,30.10,7,4,18,0.00
2013-7-2,95,82,65,47,37,25,33,21,15,30.23,30.10,10,6,20,0.00
2013-7-3,93,77,65,50,41,30,42,29,17,30.19,30.03,10,5,16,0.00
2013-7-4,95,78,63,53,47,41,58,36,16,30.11,29.92,23,5,33,0.00
2013-7-5,94,74,60,54,48,34,72,45,12,30.09,29.89,15,6,24,0.00
2013-7-6,89,80,67,52,44,35,58,31,15,30.01,29.87,19,9,27,0.00
2013-7-7,88,74,58,48,42,34,57,35,15,30.09,29.98,18,9,30,0.00
2013-7-8,93,70,56,47,37,20,70,39,9,30.16,30.08,15,5,27,0.00
2013-7-9,93,72,53,30,21,14,34,16,7,30.26,30.11,11,5,21,0.00
2013-7-10,96,76,50,29,20,-100,23,14,8,30.20,30.02,17,7,30,0.00
2013-7-11,82,73,65,50,38,28,56,30,15,30.11,30.05,16,5,28,0.00
2013-7-12,83,69,57,56,50,41,88,56,23,30.12,30.00,15,6,26,0.00
2013-7-13,80,72,63,46,43,40,47,37,28,30.15,30.09,6,4,10,0.00
2013-7-14,90,72,50,45,40,34,71,37,15,30.22,30.04,8,4,14,0.00
2013-7-15,92,73,54,51,43,38,58,36,15,30.12,29.99,18,5,27,0.00
2013-7-16,90,77,60,55,49,38,72,41,17,30.11,30.00,15,6,24,0.00
2013-7-17,92,74,58,52,43,36,67,38,15,30.23,30.11,8,4,13,0.00
2013-7-18,94,82,56,38,36,34,49,23,12,30.21,30.15,5,4,9,0.00
2013-7-19,91,83,68,39,35,29,25,18,13,30.14,30.05,13,5,23,0.00
2013-7-20,93,75,57,34,32,29,40,23,11,30.12,30.03,6,4,23,0.00
2013-7-21,73,73,72,42,42,41,32,32,32,30.06,30.06,5,4,10,0.00
2013-7-22,97,78,54,47,37,25,57,28,8,30.14,30.01,15,6,22,0.00
2013-7-23,92,76,59,47,40,33,46,29,13,30.19,30.10,14,5,25,0.00
2013-7-24,86,75,64,49,44,39,53,34,19,30.16,30.10,13,4,23,0.00
2013-7-25,94,74,51,48,40,31,75,38,11,30.22,30.13,11,4,20,0.00
2013-7-26,92,75,59,50,42,37,51,33,16,30.29,30.16,14,6,33,0.00
2013-7-27,74,68,56,59,54,49,80,62,42,30.25,30.07,12,4,19,0.00
2013-7-28,88,66,50,53,45,33,88,55,14,30.09,29.94,9,4,20,0.00
2013-7-29,84,68,58,51,45,40,72,45,22,30.17,30.04,12,4,18,0.00
2013-7-30,88,73,53,46,37,28,67,33,13,30.27,30.17,13,6,19,0.00
2013-7-31,92,81,66,39,34,28,34,20,11,30.25,30.08,21,12,35,0.00
2013-8-1,92,80,58,42,22,8,40,15,5,30.12,29.94,20,11,32,0.00
2013-8-2,90,71,47,23,18,14,31,15,7,30.12,29.98,20,7,31,0.00
2013-8-3,92,76,59,29,21,14,30,14,6,30.17,30.05,18,8,28,0.00
2013-8-4,86,72,54,35,27,20,36,20,10,30.20,30.08,11,6,18,0.00
2013-8-5,90,76,56,36,31,25,48,22,10,30.16,30.02,13,5,21,0.00
2013-8-6,92,74,51,31,27,24,42,20,9,30.14,30.04,10,4,16,0.00
2013-8-7,88,70,49,40,30,25,42,25,11,30.12,30.00,11,5,21,0.00
2013-8-8,86,69,55,39,22,14,37,20,8,30.10,29.96,18,8,25,0.00
2013-8-9,86,70,46,24,21,15,33,17,10,30.11,30.01,19,9,30,0.00
2013-8-10,85,62,43,28,22,15,40,24,10,30.18,30.05,21,5,32,0.00
2013-8-11,86,65,49,26,20,15,29,19,10,30.21,30.12,18,7,30,0.00
2013-8-12,88,76,60,24,16,12,15,11,7,30.13,30.05,14,8,21,0.00
2013-8-13,89,64,45,21,16,11,27,16,8,30.21,30.08,13,4,21,0.00
2013-8-14,77,58,48,18,13,11,24,17,9,30.17,30.06,6,4,8,0.00
2013-8-15,92,68,49,23,11,-100,22,13,6,30.21,30.10,13,5,20,0.00
2013-8-16,92,78,63,39,30,22,30,19,11,30.22,30.11,11,6,24,0.00
2013-8-17,90,75,61,52,37,-100,53,27,14,30.20,30.06,13,7,19,0.00
2013-8-18,86,72,57,53,46,40,84,44,20,30.23,30.15,14,6,23,0.00
2013-8-19,83,69,61,52,44,-100,72,45,25,30.25,30.12,17,7,24,0.00
2013-8-20,80,64,54,59,51,46,81,62,32,30.20,30.15,8,3,15,0.00
2013-8-21,87,68,50,57,50,39,92,59,19,30.25,30.09,8,3,18,0.00
2013-8-22,88,69,56,57,50,39,91,58,18,30.26,30.07,20,8,27,0.00
2013-8-23,77,67,57,51,49,43,78,55,36,30.13,29.98,21,8,29,0.00
2013-8-24,77,61,54,51,45,-100,79,60,36,30.13,30.04,15,8,25,0.00
2013-8-25,79,67,50,54,49,44,89,55,29,30.18,30.05,22,14,31,0.00
2013-8-26,74,64,59,54,50,44,80,62,35,30.19,30.13,19,9,27,0.00
2013-8-27,74,60,53,58,52,49,88,74,46,30.18,30.13,12,4,17,0.00
2013-8-28,85,72,62,57,53,46,76,54,27,30.21,30.09,16,6,28,0.00
2013-8-29,88,69,49,55,51,47,94,59,24,30.27,30.16,17,6,24,0.00
2013-8-30,86,73,63,54,50,44,67,46,23,30.26,30.13,8,4,12,0.00
2013-8-31,78,67,59,58,51,-100,86,59,37,30.21,30.11,10,4,16,0.00
2013-9-1,84,66,53,60,55,48,92,71,29,30.18,30.03,12,4,21,0.00
2013-9-2,83,69,58,59,56,49,94,66,33,30.18,30.08,17,6,24,0.00
2013-9-3,73,64,59,59,55,52,92,74,48,30.30,30.14,7,3,13,0.00
2013-9-4,82,67,53,58,53,50,90,64,33,30.30,30.17,11,4,19,0.00
2013-9-5,87,70,56,57,51,40,94,57,20,30.29,30.10,19,7,28,0.00
2013-9-6,83,69,58,51,48,43,70,49,27,30.21,30.10,18,8,25,0.00
2013-9-7,68,60,57,59,53,-100,94,80,60,30.26,30.17,15,4,22,0.00
2013-9-8,77,65,54,56,53,46,96,71,35,30.19,30.01,6,2,13,0.00
2013-9-9,80,69,54,52,46,40,90,47,26,30.09,29.97,8,6,17,0.00
2013-9-10,73,62,50,54,44,39,88,56,29,30.12,30.04,10,5,17,0.00
2013-9-11,65,57,55,56,54,52,95,88,65,30.15,30.10,4,2,7,0.00
2013-9-12,61,58,56,56,55,54,94,91,85,30.12,30.09,3,2,5,0.00
2013-9-13,67,59,53,56,53,50,97,84,56,30.12,29.98,7,2,14,0.00
2013-9-14,71,60,50,53,48,-100,96,70,46,30.07,29.97,9,4,16,0.00
2013-9-15,78,60,48,55,50,47,95,75,34,30.09,30.01,4,3,11,0.00
2013-9-16,60,57,55,52,51,50,85,81,75,30.09,30.08,3,3,5,0.00
2013-9-17,83,74,61,46,34,12,56,29,8,29.97,29.71,26,16,38,0.00
2013-9-18,61,56,50,36,30,24,59,40,24,30.11,29.90,11,7,17,0.00
2013-9-19,70,56,40,36,32,29,73,44,22,30.20,30.09,8,5,12,0.00
2013-9-20,79,58,38,36,31,20,85,44,11,30.14,29.89,21,6,31,0.00
2013-9-21,78,66,54,29,22,-100,37,21,13,29.94,29.64,25,14,37,0.00
2013-9-22,65,56,47,30,24,14,51,30,14,29.99,29.66,13,6,22,0.00
2013-9-23,72,53,36,33,30,26,80,45,18,30.15,29.99,7,4,13,0.00
2013-9-24,79,60,40,31,26,20,67,35,11,30.11,29.76,25,11,34,0.00
2013-9-25,66,53,39,32,26,21,74,37,20,29.80,29.65,20,12,33,0.00
2013-9-26,48,41,36,32,29,26,74,62,48,29.91,29.77,6,3,10,0.00
2013-9-27,56,44,33,31,26,21,80,51,28,30.19,29.91,7,4,20,0.00
2013-9-28,68,50,30,26,21,-100,75,38,18,30.24,30.13,14,4,20,0.00
2013-9-29,72,58,42,24,21,18,46,26,13,30.16,30.01,20,8,30,0.00
2013-9-30,77,63,50,31,22,18,31,22,15,30.05,29.94,14,8,22,0.00
2013-10-1,76,65,54,27,24,22,34,22,14,30.01,29.93,11,6,20,0.00
2013-10-2,72,56,46,38,31,24,56,40,20,30.02,29.83,16,8,31,0.00
2013-10-3,53,46,41,26,17,14,42,31,21,30.11,29.84,15,9,28,0.00
2013-10-4,47,39,31,26,22,18,65,52,34,30.41,30.11,11,7,20,0.00
2013-10-5,60,47,26,22,18,13,72,35,16,30.49,30.39,8,5,12,0.00
2013-10-6,70,45,27,20,17,13,67,38,12,30.43,30.23,6,2,9,0.00
2013-10-7,73,53,31,23,19,15,64,31,12,30.23,29.97,19,8,30,0.00
2013-10-8,66,51,37,22,18,14,41,27,14,29.97,29.78,12,5,18,0.00
2013-10-9,57,46,38,38,27,22,94,50,28,29.82,29.69,12,7,18,0.00
2013-10-10,53,43,36,39,36,31,95,78,50,29.95,29.72,8,3,13,0.00
2013-10-11,59,44,32,38,30,24,95,64,27,30.09,29.95,6,3,10,0.00
2013-10-12,61,46,32,34,28,-100,88,54,27,30.05,29.89,17,7,26,0.00
2013-10-13,50,41,33,38,35,27,95,79,40,30.12,29.90,13,6,25,0.00
2013-10-14,52,43,31,36,33,28,88,69,42,30.24,30.12,8,4,12,0.00
2013-10-15,48,42,32,33,28,24,84,59,41,30.25,30.20,13,9,20,0.00
2013-10-16,57,38,24,29,24,16,91,63,20,30.26,30.12,7,4,12,0.00
2013-10-17,63,44,25,28,23,16,88,49,19,30.17,30.07,8,3,10,0.00
2013-10-18,59,43,27,29,25,23,85,54,27,30.29,30.16,6,4,9,0.00
2013-10-19,64,38,23,29,21,-100,90,59,12,30.27,30.14,4,2,7,0.00
2013-10-20,66,45,26,24,21,15,79,45,16,30.14,30.05,7,3,12,0.00
2013-10-21,64,46,29,28,24,18,80,46,17,30.27,30.15,7,4,10,0.00
2013-10-22,66,45,28,27,25,22,85,51,18,30.30,30.17,7,3,9,0.00
2013-10-23,66,45,27,27,24,18,84,50,16,30.22,30.12,6,2,7,0.00
2013-10-24,66,46,29,27,25,23,79,49,20,30.20,30.12,5,3,7,0.00
2013-10-25,68,46,29,29,25,22,80,49,18,30.29,30.19,8,3,10,0.00
2013-10-26,68,42,27,26,22,-100,82,51,17,30.38,30.21,6,2,7,0.00
2013-10-27,68,48,28,25,21,14,79,41,13,30.21,29.56,19,6,28,0.00
2013-10-28,51,42,31,35,28,21,89,62,31,29.71,29.41,27,13,38,0.00
2013-10-29,42,33,23,32,28,21,95,84,62,29.95,29.71,6,3,9,0.00
2013-10-30,47,31,22,32,25,20,95,78,39,30.11,29.94,6,3,8,0.00
2013-10-31,53,36,22,27,24,19,90,65,32,30.23,30.11,7,3,12,0.00
2013-11-1,42,32,23,30,26,19,93,78,59,30.34,30.22,6,3,8,0.00
2013-11-2,65,40,22,29,20,-100,90,56,15,30.22,29.82,20,8,31,0.00
2013-11-3,49,38,31,31,17,7,84,45,23,29.97,29.79,16,8,24,0.00
2013-11-4,40,33,23,17,14,12,66,45,33,30.10,29.92,9,6,13,0.00
2013-11-5,42,27,15,16,13,9,80,58,28,30.25,30.10,5,3,13,0.00
2013-11-6,57,41,26,23,19,12,67,43,25,30.41,30.35,4,2,9,0.00
2013-11-7,61,42,23,25,20,17,81,48,22,30.37,30.09,16,5,25,0.00
2013-11-8,63,47,34,21,19,16,53,35,16,30.12,30.03,7,4,21,0.00
2013-11-9,65,46,30,22,17,-100,62,36,15,30.23,30.07,6,3,10,0.00
2013-11-10,33,33,33,20,20,20,58,58,58,30.23,30.23,4,4,5,0.00
2013-11-12,60,44,37,24,19,17,46,37,19,30.39,30.37,5,2,7,0.00
2013-11-13,63,44,33,26,21,17,66,43,17,30.35,30.22,11,4,17,0.00
2013-11-14,64,43,23,26,18,4,87,47,10,30.26,29.77,15,6,29,0.00
2013-11-15,40,33,22,31,25,17,93,72,48,29.78,29.69,16,6,24,0.00
2013-11-16,49,39,20,23,17,-100,91,47,30,29.75,29.56,18,7,29,0.00
2013-11-17,58,44,30,26,20,16,64,41,20,30.04,29.82,11,6,19,0.00
2013-11-18,60,40,23,29,24,17,84,56,24,30.18,29.98,17,6,27,0.00
2013-11-19,52,44,32,32,28,24,75,56,39,29.97,29.91,12,4,22,0.00
2013-11-20,46,36,28,37,29,22,92,78,63,29.93,29.81,5,2,9,0.00
2013-11-21,38,27,23,35,25,19,96,89,76,30.26,29.86,14,10,19,0.00
2013-11-22,32,29,28,11,8,5,42,40,38,30.28,30.22,15,13,23,0.00
2013-11-23,34,32,30,21,10,-100,63,44,36,30.23,30.12,15,10,21,0.00
2013-11-24,41,31,25,26,22,17,84,71,40,30.23,30.11,5,3,7,0.00
2013-11-25,47,32,20,24,20,16,89,65,31,30.40,30.23,10,4,13,0.00
2013-11-27,45,35,27,29,26,24,88,70,50,30.12,30.06,5,3,7,0.00
2013-11-28,42,31,23,29,25,20,92,79,57,30.17,30.08,5,2,6,0.00
2013-11-29,46,31,20,30,25,17,93,78,51,30.29,30.17,6,2,7,0.00
2013-11-30,48,30,17,27,21,-100,93,74,39,30.33,30.23,5,2,6,0.00
2013-12-1,49,34,19,28,24,17,93,69,44,30.35,30.20,8,4,11,0.00
2013-12-2,60,50,31,25,17,11,76,31,16,30.19,29.70,18,10,35,0.00
2013-12-3,51,29,15,31,19,11,92,72,33,29.70,29.56,14,10,28,0.00
2013-12-4,16,2,-13,7,-5,-19,82,72,57,29.97,29.70,8,4,11,0.00
2013-12-5,1,-16,-24,-5,-21,-30,81,77,73,29.97,29.91,4,2,6,0.00
2013-12-6,13,-12,-27,7,-17,-33,84,76,69,30.00,29.88,6,2,9,0.00
2013-12-7,28,21,18,19,10,-100,90,67,43,29.78,29.55,26,15,39,0.00
2013-12-8,17,8,-6,2,-2,-11,82,64,46,30.11,29.86,16,4,28,0.00
2013-12-9,19,3,-12,2,-7,-18,81,65,40,30.41,30.14,7,4,9,0.00
2013-12-10,10,0,-8,2,-6,-12,82,77,70,30.40,30.24,5,2,8,0.00
2013-12-11,21,5,-2,8,0,-6,89,78,56,30.43,30.30,5,2,6,0.00
2013-12-12,11,2,-6,4,-2,-10,88,84,69,30.42,30.14,4,2,7,0.00
2013-12-13,35,17,0,19,10,-3,88,74,49,30.41,30.12,11,5,16,0.00
2013-12-14,32,17,8,19,10,-100,91,77,51,30.54,30.41,6,3,7,0.00
2013-12-15,17,10,3,14,7,0,92,88,79,30.53,30.43,4,2,7,0.00
2013-12-16,30,12,4,17,9,0,91,86,58,30.50,30.41,4,2,6,0.00
2013-12-17,26,12,4,17,8,1,91,84,70,30.49,30.41,2,1,5,0.00
2013-12-18,40,32,14,35,28,12,93,86,72,30.17,29.63,20,6,30,0.00
2013-12-19,38,30,21,33,28,18,97,90,80,29.86,29.54,21,10,30,0.00
2013-12-20,25,20,13,21,16,9,90,82,76,29.87,29.79,8,6,11,0.00
2013-12-21,34,24,16,27,15,-100,90,78,74,30.07,29.75,10,5,14,0.00
2013-12-22,29,14,7,21,11,4,93,86,70,30.36,30.07,5,3,7,0.00
2013-12-23,26,16,10,23,14,6,94,89,84,30.47,30.36,6,3,9,0.00
2013-12-24,42,28,16,28,21,12,95,75,53,30.49,30.29,10,5,20,0.00
2013-12-25,32,16,8,16,9,4,86,76,51,30.55,30.44,4,2,6,0.00
2013-12-26,19,11,3,13,7,1,89,82,76,30.48,30.42,4,2,5,0.00
2013-12-27,22,16,7,14,10,1,87,77,57,30.44,30.20,4,2,10,0.00
2013-12-28,38,25,14,21,14,-100,88,69,50,30.28,30.08,16,6,21,0.00
2013-12-29,36,20,6,15,10,2,86,67,39,30.34,30.26,7,4,10,0.00
2013-12-30,25,13,6,14,8,3,88,80,60,30.37,30.27,4,2,7,0.00
2013-12-31,39,23,16,24,17,11,85,77,54,30.27,30.19,4,2,7,0.00
2014-1-1,40,29,18,23,20,15,89,71,50,30.35,30.30,5,2,6,0.00
2014-1-2,34,19,10,22,15,7,94,84,59,30.35,30.20,4,2,6,0.00